Time;durP1;ratioP1;P1;durP2;ratioP2;P2;SDS_P1;SDS_P2;PMS_P1;PMS_P2;Temp;Humidity;BMP_temperature;BMP_pressure;BME280_temperature;BME280_humidity;BME280_pressure;Samples;Min_cycle;Max_cycle;Signal;HPM_P1;HPM_P2
2022/06/11 00:00:49;;;;;;;12.20;3.65;;;;;;;10.54;100.00;100780.91;5008247;28;20057;-82
2022/06/11 00:03:16;;;;;;;9.55;3.38;;;;;;;10.55;100.00;100775.34;5023593;28;20053;-83
2022/06/11 00:05:41;;;;;;;13.98;4.35;;;;;;;10.62;100.00;100788.09;5007961;28;20485;-82
2022/06/11 00:08:07;;;;;;;7.03;3.67;;;;;;;10.64;100.00;100786.91;5023354;28;20061;-82
2022/06/11 00:10:33;;;;;;;9.88;2.92;;;;;;;10.57;100.00;100778.69;5018766;28;20163;-82
2022/06/11 00:12:59;;;;;;;10.10;2.55;;;;;;;10.68;100.00;100792.75;5020154;28;20124;-83
2022/06/11 00:15:25;;;;;;;7.82;2.67;;;;;;;10.68;100.00;100787.38;5022142;28;20462;-83
2022/06/11 00:17:52;;;;;;;7.03;3.03;;;;;;;10.77;100.00;100797.09;5021940;28;20021;-84
2022/06/11 00:20:18;;;;;;;18.60;3.33;;;;;;;10.83;100.00;100801.78;5026621;28;20040;-83
2022/06/11 00:22:44;;;;;;;13.52;4.38;;;;;;;10.86;100.00;100796.03;5017748;28;20131;-82
2022/06/11 00:25:09;;;;;;;17.35;4.32;;;;;;;10.88;100.00;100799.38;5023333;28;20029;-82
2022/06/11 00:27:35;;;;;;;10.75;4.43;;;;;;;10.87;100.00;100784.25;5003317;28;20077;-82
2022/06/11 00:30:05;;;;;;;13.43;4.22;;;;;;;10.89;100.00;100797.53;5022831;28;20025;-82
2022/06/11 00:32:31;;;;;;;9.10;2.72;;;;;;;10.86;100.00;100789.81;5022682;28;20029;-83
2022/06/11 00:35:01;;;;;;;14.48;4.47;;;;;;;10.92;100.00;100805.25;5023519;28;20021;-81
2022/06/11 00:37:26;;;;;;;11.40;3.17;;;;;;;10.87;100.00;100795.00;5051645;28;20419;-81
2022/06/11 00:39:52;;;;;;;13.40;3.30;;;;;;;10.91;100.00;100795.50;5024439;28;20038;-82
2022/06/11 00:42:24;;;;;;;20.80;5.70;;;;;;;10.85;100.00;100774.69;5031850;28;20045;-81
2022/06/11 00:45:13;;;;;;;6.25;2.83;;;;;;;10.92;100.00;100781.84;5021115;28;20025;-83
2022/06/11 00:47:39;;;;;;;12.50;4.13;;;;;;;11.00;100.00;100783.66;5025258;28;20025;-83
2022/06/11 00:50:24;;;;;;;22.00;4.00;;;;;;;10.96;100.00;100779.69;5027625;28;20048;-82
2022/06/11 00:52:50;;;;;;;17.77;4.40;;;;;;;11.05;100.00;100799.28;4991294;28;20049;-84
2022/06/11 00:55:23;;;;;;;28.40;5.22;;;;;;;11.11;100.00;100790.50;5009387;28;20040;-84
2022/06/11 00:58:03;;;;;;;8.55;3.85;;;;;;;11.17;100.00;100787.09;4993645;28;20047;-82
2022/06/11 01:00:33;;;;;;;17.55;3.80;;;;;;;11.21;100.00;100783.84;5009048;28;20445;-80
2022/06/11 01:02:59;;;;;;;11.52;3.28;;;;;;;11.28;100.00;100789.38;5008621;28;20163;-83
2022/06/11 01:05:31;;;;;;;20.73;4.53;;;;;;;11.30;100.00;100779.28;5009605;28;20491;-82
2022/06/11 01:08:10;;;;;;;13.88;5.03;;;;;;;11.39;100.00;100790.81;5007232;28;20155;-83
2022/06/11 01:10:39;;;;;;;14.38;4.80;;;;;;;11.46;100.00;100791.75;5024343;28;20029;-83
2022/06/11 01:13:36;;;;;;;13.10;4.22;;;;;;;11.52;100.00;100780.25;5025736;28;20033;-83
2022/06/11 01:16:17;;;;;;;18.67;4.22;;;;;;;11.51;100.00;100772.34;5020075;28;20039;-83
2022/06/11 01:18:55;;;;;;;16.83;4.00;;;;;;;11.59;100.00;100780.34;5023444;28;20029;-81
2022/06/11 01:22:13;;;;;;;9.65;4.00;;;;;;;11.66;100.00;100789.38;4992936;28;20092;-83
2022/06/11 01:25:06;;;;;;;19.02;4.75;;;;;;;11.70;100.00;100787.19;4978851;28;20041;-83
2022/06/11 01:28:11;;;;;;;18.00;5.40;;;;;;;11.69;100.00;100794.41;5016914;28;20067;-80
2022/06/11 01:31:00;;;;;;;10.07;3.92;;;;;;;11.69;100.00;100785.50;5020931;28;20100;-82
2022/06/11 01:33:36;;;;;;;25.33;4.20;;;;;;;11.70;100.00;100781.81;5016726;28;20045;-81
2022/06/11 01:36:10;;;;;;;10.25;3.38;;;;;;;11.71;100.00;100788.84;5021563;28;20451;-81
2022/06/11 01:38:40;;;;;;;31.08;5.32;;;;;;;11.65;100.00;100780.47;5002875;28;20112;-82
2022/06/11 01:41:31;;;;;;;21.75;5.18;;;;;;;11.63;100.00;100784.38;4999867;28;20494;-82
2022/06/11 01:44:04;;;;;;;14.43;4.82;;;;;;;11.40;100.00;100763.69;5018956;28;20033;-82
2022/06/11 01:46:35;;;;;;;;;;;;;;;11.40;100.00;100774.44;5008915;28;20029;-82
2022/06/11 01:49:19;;;;;;;21.65;7.32;;;;;;;11.22;100.00;100763.19;5056043;28;19912;-81
2022/06/11 01:52:10;;;;;;;15.45;5.55;;;;;;;11.24;100.00;100788.03;5037931;28;20057;-83
2022/06/11 01:54:51;;;;;;;17.23;4.63;;;;;;;11.14;100.00;100796.38;5025209;28;20034;-81
2022/06/11 01:57:28;;;;;;;11.27;4.43;;;;;;;11.11;100.00;100803.94;5026765;28;20029;-81
2022/06/11 02:00:15;;;;;;;16.85;3.80;;;;;;;11.08;100.00;100793.53;5006639;28;20390;-83
2022/06/11 02:02:55;;;;;;;11.98;4.18;;;;;;;10.83;100.00;100756.03;5012587;28;20029;-82
2022/06/11 02:05:48;;;;;;;26.33;5.53;;;;;;;11.06;100.00;100790.19;5008881;28;20454;-84
2022/06/11 02:08:22;;;;;;;;;;;;;;;11.00;100.00;100800.63;5025042;28;20065;-81
2022/06/11 02:11:18;;;;;;;13.32;4.93;;;;;;;10.99;100.00;100803.53;5011741;28;19992;-83
2022/06/11 02:13:46;;;;;;;16.30;4.00;;;;;;;10.95;100.00;100799.50;5043292;28;20033;-81
2022/06/11 02:16:18;;;;;;;20.27;5.05;;;;;;;10.94;100.00;100803.22;5027844;28;20029;-83
2022/06/11 02:18:46;;;;;;;19.60;5.30;;;;;;;10.98;100.00;100802.69;5027122;28;20044;-83
2022/06/11 02:21:14;;;;;;;22.33;5.25;;;;;;;10.93;100.00;100799.69;4994112;28;20035;-82
2022/06/11 02:23:45;;;;;;;27.65;5.22;;;;;;;10.87;100.00;100810.31;5023563;28;20033;-80
2022/06/11 02:26:32;;;;;;;20.02;4.78;;;;;;;10.77;100.00;100797.94;5060685;28;20069;-81
2022/06/11 02:29:00;;;;;;;23.23;5.32;;;;;;;10.79;100.00;100816.56;4993193;28;20021;-81
2022/06/11 02:31:29;;;;;;;10.88;4.30;;;;;;;10.85;100.00;100809.63;5007940;28;20067;-82
2022/06/11 02:33:55;;;;;;;30.85;6.85;;;;;;;10.89;100.00;100800.22;5026264;28;20033;-81
2022/06/11 02:36:27;;;;;;;24.60;5.85;;;;;;;10.99;100.00;100814.28;5024482;28;20033;-81
2022/06/11 02:38:58;;;;;;;26.65;5.65;;;;;;;11.09;100.00;100811.38;5007476;28;20056;-83
2022/06/11 02:41:31;;;;;;;19.83;5.32;;;;;;;11.16;100.00;100818.53;5037165;28;20514;-83
2022/06/11 02:43:57;;;;;;;22.50;5.10;;;;;;;11.19;100.00;100809.28;5007230;28;20024;-82
2022/06/11 02:46:41;;;;;;;21.88;6.00;;;;;;;11.29;100.00;100806.34;5022168;28;20099;-81
2022/06/11 02:49:09;;;;;;;28.90;6.13;;;;;;;11.32;100.00;100827.53;5020701;28;20040;-81
2022/06/11 02:51:35;;;;;;;25.48;5.43;;;;;;;11.33;100.00;100813.06;5018812;28;20056;-81
2022/06/11 02:54:00;;;;;;;20.90;5.20;;;;;;;11.35;100.00;100822.63;5026679;28;20046;-81
2022/06/11 02:56:27;;;;;;;22.60;4.93;;;;;;;11.36;100.00;100824.31;5027125;28;20041;-83
2022/06/11 02:58:53;;;;;;;16.30;6.05;;;;;;;11.38;100.00;100832.22;5050520;28;20026;-82
2022/06/11 03:01:20;;;;;;;20.42;6.35;;;;;;;11.41;100.00;100827.28;5019506;28;20025;-81
2022/06/11 03:03:48;;;;;;;26.92;6.15;;;;;;;11.40;100.00;100825.59;5023518;28;20028;-81
2022/06/11 03:06:14;;;;;;;29.98;6.63;;;;;;;11.39;100.00;100833.88;5026385;28;20030;-81
2022/06/11 03:08:40;;;;;;;21.10;5.55;;;;;;;11.29;100.00;100830.56;5014153;28;20391;-81
2022/06/11 03:11:06;;;;;;;24.55;6.18;;;;;;;11.12;100.00;100824.47;5030705;28;20080;-81
2022/06/11 03:13:32;;;;;;;16.42;4.85;;;;;;;11.02;100.00;100837.31;4997418;28;20073;-83
2022/06/11 03:15:58;;;;;;;23.60;5.97;;;;;;;10.87;100.00;100837.22;5021624;28;20030;-80
2022/06/11 03:18:24;;;;;;;18.80;5.55;;;;;;;10.89;100.00;100844.09;5020446;28;20108;-79
2022/06/11 03:20:50;;;;;;;32.42;6.05;;;;;;;11.00;100.00;100850.94;5027587;28;20033;-83
2022/06/11 03:23:17;;;;;;;27.55;5.45;;;;;;;10.89;100.00;100816.34;5024070;28;20036;-81
2022/06/11 03:25:42;;;;;;;20.10;6.63;;;;;;;11.12;100.00;100843.31;4991447;28;20482;-82
2022/06/11 03:28:11;;;;;;;18.95;3.80;;;;;;;11.14;100.00;100852.03;5024470;28;20022;-81
2022/06/11 03:30:37;;;;;;;12.23;3.65;;;;;;;11.11;100.00;100844.31;5039368;28;20033;-81
2022/06/11 03:33:05;;;;;;;19.95;4.90;;;;;;;11.16;100.00;100850.00;5027147;28;20029;-83
2022/06/11 03:35:31;;;;;;;19.08;5.43;;;;;;;11.18;100.00;100847.97;5009239;28;20159;-80
2022/06/11 03:37:56;;;;;;;19.40;4.82;;;;;;;11.17;100.00;100860.59;5026995;28;20563;-82
2022/06/11 03:40:23;;;;;;;28.35;4.85;;;;;;;11.17;100.00;100851.69;5024116;28;20173;-80
2022/06/11 03:42:49;;;;;;;23.50;5.60;;;;;;;11.06;100.00;100836.78;5033760;28;20022;-83
2022/06/11 03:45:17;;;;;;;19.15;5.28;;;;;;;11.03;100.00;100847.06;5018525;28;20395;-81
2022/06/11 03:47:43;;;;;;;16.67;5.95;;;;;;;10.92;100.00;100859.03;5026379;28;20033;-83
2022/06/11 03:50:20;;;;;;;28.73;6.32;;;;;;;10.80;100.00;100858.59;5024841;28;20029;-81
2022/06/11 03:52:46;;;;;;;26.42;6.18;;;;;;;10.76;100.00;100858.09;4994067;28;20063;-81
2022/06/11 03:55:11;;;;;;;23.00;5.57;;;;;;;10.71;100.00;100863.16;5018276;28;20037;-82
2022/06/11 03:57:38;;;;;;;25.25;6.00;;;;;;;10.76;100.00;100859.97;5009045;28;20044;-82
2022/06/11 04:00:07;;;;;;;8.07;3.10;;;;;;;10.87;100.00;100856.88;4984094;28;20362;-81
2022/06/11 04:02:33;;;;;;;26.80;5.90;;;;;;;11.00;100.00;100859.00;5006185;28;20495;-83
2022/06/11 04:04:58;;;;;;;19.88;5.40;;;;;;;11.12;100.00;100856.78;5024784;28;20028;-84
2022/06/11 04:07:24;;;;;;;16.23;5.38;;;;;;;10.98;100.00;100834.13;5018378;28;20417;-81
2022/06/11 04:09:50;;;;;;;23.42;5.13;;;;;;;11.29;100.00;100873.66;4995076;28;20030;-81
2022/06/11 04:12:15;;;;;;;24.05;6.05;;;;;;;11.32;100.00;100879.50;5018195;28;20029;-82
2022/06/11 04:14:43;;;;;;;27.45;5.20;;;;;;;11.33;100.00;100862.34;5024566;28;20451;-80
2022/06/11 04:17:16;;;;;;;24.98;6.28;;;;;;;11.30;100.00;100857.34;5020785;28;20043;-81
2022/06/11 04:19:45;;;;;;;22.73;5.78;;;;;;;11.41;100.00;100874.94;5022263;28;20021;-81
2022/06/11 04:22:12;;;;;;;31.23;6.53;;;;;;;11.23;100.00;100857.19;5024890;28;20037;-80
2022/06/11 04:24:38;;;;;;;35.72;6.68;;;;;;;11.32;100.00;100879.50;5023529;28;20044;-82
2022/06/11 04:27:06;;;;;;;17.17;3.83;;;;;;;11.29;100.00;100881.72;5022518;28;20037;-81
2022/06/11 04:29:35;;;;;;;29.35;6.72;;;;;;;11.19;100.00;100871.16;5022735;28;20176;-81
2022/06/11 04:32:03;;;;;;;20.67;5.47;;;;;;;10.98;100.00;100869.97;5003415;28;20044;-81
2022/06/11 04:34:29;;;;;;;20.90;5.43;;;;;;;11.04;100.00;100878.34;5008000;28;20103;-81
2022/06/11 04:36:56;;;;;;;17.33;4.07;;;;;;;11.02;100.00;100885.75;5015987;28;20037;-82
2022/06/11 04:39:24;;;;;;;30.15;7.57;;;;;;;11.04;100.00;100899.88;5013697;28;20057;-82
2022/06/11 04:41:51;;;;;;;10.95;4.30;;;;;;;11.16;100.00;100893.06;5026689;28;20048;-80
2022/06/11 04:44:17;;;;;;;21.65;5.00;;;;;;;11.27;100.00;100895.34;5017893;28;20030;-82
2022/06/11 04:46:43;;;;;;;26.85;6.05;;;;;;;11.30;100.00;100891.47;4991269;28;20099;-81
2022/06/11 04:49:09;;;;;;;25.45;5.97;;;;;;;11.25;100.00;100892.03;4990852;28;20483;-82
2022/06/11 04:51:37;;;;;;;21.73;4.65;;;;;;;11.19;100.00;100895.41;5001301;28;20025;-81
2022/06/11 04:54:03;;;;;;;29.80;6.30;;;;;;;11.22;100.00;100901.28;5019224;28;20045;-81
2022/06/11 04:56:30;;;;;;;16.77;4.30;;;;;;;11.15;100.00;100886.00;5003979;28;20498;-81
2022/06/11 04:58:56;;;;;;;18.05;4.40;;;;;;;11.25;100.00;100896.56;5028442;28;20029;-82
2022/06/11 05:01:22;;;;;;;17.27;5.00;;;;;;;11.31;100.00;100894.00;5020166;28;20037;-81
2022/06/11 05:03:48;;;;;;;10.55;4.97;;;;;;;11.34;100.00;100895.50;5020886;28;20040;-80
2022/06/11 05:06:20;;;;;;;20.67;5.78;;;;;;;11.44;100.00;100894.25;5024147;28;20491;-81
2022/06/11 05:08:46;;;;;;;28.40;6.40;;;;;;;11.57;100.00;100896.34;5012448;28;20041;-81
2022/06/11 05:11:11;;;;;;;19.08;5.30;;;;;;;11.63;100.00;100897.50;5017891;28;20467;-81
2022/06/11 05:13:37;;;;;;;11.43;4.07;;;;;;;11.73;100.00;100902.66;5024145;28;20021;-81
2022/06/11 05:16:06;;;;;;;28.13;6.00;;;;;;;11.79;100.00;100904.59;4996953;28;20051;-83
2022/06/11 05:18:33;;;;;;;28.00;6.80;;;;;;;11.88;100.00;100909.78;5054998;28;20064;-81
2022/06/11 05:20:59;;;;;;;20.85;5.00;;;;;;;11.90;100.00;100900.69;4987875;28;20060;-79
2022/06/11 05:23:25;;;;;;;18.67;5.03;;;;;;;11.95;100.00;100909.91;5055853;28;20026;-81
2022/06/11 05:25:50;;;;;;;20.13;5.85;;;;;;;11.97;100.00;100910.56;4993480;28;20034;-80
2022/06/11 05:28:20;;;;;;;20.25;6.13;;;;;;;11.99;100.00;100915.78;5027539;28;20360;-82
2022/06/11 05:30:46;;;;;;;20.58;6.55;;;;;;;11.99;100.00;100916.63;5003282;28;20080;-81
2022/06/11 05:33:13;;;;;;;13.05;4.72;;;;;;;12.05;100.00;100923.97;5026261;28;20073;-79
2022/06/11 05:35:40;;;;;;;20.80;5.10;;;;;;;12.05;100.00;100913.19;5008431;28;20040;-81
2022/06/11 05:38:08;;;;;;;27.10;6.72;;;;;;;11.99;100.00;100916.63;5022812;28;20034;-83
2022/06/11 05:40:40;;;;;;;32.88;4.72;;;;;;;11.93;100.00;100914.63;5026281;28;20026;-82
2022/06/11 05:43:06;;;;;;;14.02;3.63;;;;;;;11.95;100.00;100919.84;5004938;28;20108;-81
2022/06/11 05:45:36;;;;;;;19.27;4.43;;;;;;;11.73;100.00;100883.78;5004812;28;20030;-80
2022/06/11 05:48:04;;;;;;;24.35;6.45;;;;;;;12.12;100.00;100918.69;4999777;28;20958;-79
2022/06/11 05:50:32;;;;;;;16.38;4.50;;;;;;;12.25;100.00;100918.91;5009029;28;20045;-82
2022/06/11 05:52:59;;;;;;;14.30;4.20;;;;;;;12.40;100.00;100932.41;5003353;28;20026;-82
2022/06/11 05:55:28;;;;;;;17.13;4.75;;;;;;;12.53;100.00;100934.47;5016922;28;20382;-81
2022/06/11 05:57:55;;;;;;;19.20;5.20;;;;;;;12.51;100.00;100929.25;4998186;28;20034;-80
2022/06/11 06:00:23;;;;;;;18.73;4.40;;;;;;;12.51;100.00;100928.41;5010353;28;20029;-80
2022/06/11 06:02:48;;;;;;;12.73;3.92;;;;;;;12.37;100.00;100913.06;5012547;28;20033;-81
2022/06/11 06:05:21;;;;;;;32.25;7.07;;;;;;;12.32;100.00;100927.91;4999269;28;20771;-82
2022/06/11 06:07:47;;;;;;;17.33;5.35;;;;;;;12.58;100.00;100928.53;5014240;28;20071;-80
2022/06/11 06:10:13;;;;;;;14.93;5.22;;;;;;;13.66;95.55;100890.03;5014809;28;20435;-81
2022/06/11 06:12:39;;;;;;;18.02;5.40;;;;;;;14.22;92.36;100932.53;5017046;28;20033;-81
2022/06/11 06:15:09;;;;;;;29.08;6.45;;;;;;;14.18;90.07;100947.47;4989807;28;20033;-81
2022/06/11 06:17:36;;;;;;;19.95;5.88;;;;;;;13.93;89.22;100949.75;5015260;28;20037;-80
2022/06/11 06:20:03;;;;;;;13.93;3.88;;;;;;;13.71;90.74;100948.91;5014480;28;20482;-80
2022/06/11 06:22:29;;;;;;;11.90;4.07;;;;;;;13.58;91.99;100955.81;5017922;28;20045;-80
2022/06/11 06:24:54;;;;;;;22.35;4.43;;;;;;;13.47;91.88;100953.63;5015019;28;20038;-80
2022/06/11 06:27:20;;;;;;;13.63;4.75;;;;;;;13.48;90.87;100958.00;5020960;28;20029;-83
2022/06/11 06:29:49;;;;;;;14.48;4.50;;;;;;;13.48;90.70;100951.75;5006234;28;20659;-80
2022/06/11 06:32:20;;;;;;;10.27;3.72;;;;;;;13.45;90.46;100958.38;5025291;28;20064;-81
2022/06/11 06:34:46;;;;;;;23.05;4.50;;;;;;;13.48;90.01;100960.69;5024011;28;20025;-81
2022/06/11 06:37:12;;;;;;;20.67;4.72;;;;;;;13.53;89.96;100965.53;5030104;28;20068;-79
2022/06/11 06:39:38;;;;;;;11.75;4.15;;;;;;;13.72;88.97;100964.09;5025872;28;20064;-80
2022/06/11 06:42:06;;;;;;;20.23;5.32;;;;;;;13.66;87.99;100927.84;5010590;28;20048;-82
2022/06/11 06:44:32;;;;;;;19.95;5.70;;;;;;;13.88;87.84;100954.88;5022588;28;20029;-80
2022/06/11 06:46:58;;;;;;;16.75;3.60;;;;;;;14.14;85.86;100968.66;5020373;28;20039;-80
2022/06/11 06:49:26;;;;;;;19.00;5.43;;;;;;;14.36;84.91;100968.63;5026237;28;20124;-81
2022/06/11 06:51:51;;;;;;;22.10;4.97;;;;;;;14.65;83.25;100965.75;5029585;28;20268;-80
2022/06/11 06:54:17;;;;;;;18.00;5.25;;;;;;;15.17;81.20;100960.88;5027391;28;20038;-81
2022/06/11 06:56:45;;;;;;;30.40;4.60;;;;;;;16.42;75.53;100981.22;5025791;28;20141;-82
2022/06/11 06:59:11;;;;;;;16.75;4.82;;;;;;;17.33;68.89;100961.44;5019380;28;20111;-81
2022/06/11 07:01:37;;;;;;;22.48;4.90;;;;;;;17.52;68.82;100964.28;5022315;28;20033;-80
2022/06/11 07:04:03;;;;;;;11.23;4.93;;;;;;;17.18;70.70;100958.13;5022442;28;20030;-80
2022/06/11 07:06:30;;;;;;;15.15;4.93;;;;;;;16.88;70.75;100936.91;5029485;28;20471;-80
2022/06/11 07:08:56;;;;;;;20.98;5.00;;;;;;;16.57;72.98;100956.56;5022496;28;20479;-80
2022/06/11 07:11:22;;;;;;;22.70;5.45;;;;;;;16.43;74.64;100960.31;5013734;28;20035;-81
2022/06/11 07:13:48;;;;;;;20.48;6.30;;;;;;;15.88;76.27;100963.22;5005814;28;20061;-80
2022/06/11 07:16:17;;;;;;;18.58;4.18;;;;;;;15.14;79.66;100959.41;5023790;28;20403;-80
2022/06/11 07:18:52;;;;;;;27.92;7.97;;;;;;;14.64;82.44;100972.22;5008906;28;20395;-80
2022/06/11 07:21:21;;;;;;;22.15;6.18;;;;;;;14.08;86.43;100972.16;5003475;28;20084;-80
2022/06/11 07:23:52;;;;;;;17.17;5.47;;;;;;;13.32;94.29;100966.31;5001483;28;20039;-80
2022/06/11 07:26:23;;;;;;;17.00;5.32;;;;;;;12.62;100.00;100968.44;5027206;28;20033;-79
2022/06/11 07:28:56;;;;;;;15.23;4.57;;;;;;;12.35;100.00;100969.03;5010528;28;20079;-80
2022/06/11 07:31:22;;;;;;;15.65;5.45;;;;;;;12.25;100.00;100969.28;5023128;28;20467;-84
2022/06/11 07:33:49;;;;;;;20.35;6.75;;;;;;;12.29;100.00;100976.00;5021224;28;20047;-83
2022/06/11 07:36:15;;;;;;;20.85;6.68;;;;;;;12.56;100.00;100982.66;5024068;28;20124;-82
2022/06/11 07:38:40;;;;;;;20.77;6.15;;;;;;;15.60;98.50;101001.28;5006186;28;20096;-81
2022/06/11 07:41:06;;;;;;;25.85;6.63;;;;;;;15.47;95.94;101003.94;5012037;28;20037;-81
2022/06/11 07:43:32;;;;;;;16.02;5.10;;;;;;;14.23;100.00;100997.22;5009646;28;20471;-81
2022/06/11 07:45:58;;;;;;;12.25;3.80;;;;;;;13.37;100.00;101023.31;5005739;28;20028;-80
2022/06/11 07:48:23;;;;;;;14.60;5.13;;;;;;;12.70;100.00;101019.63;5021819;28;20033;-80
2022/06/11 07:50:50;;;;;;;12.10;4.07;;;;;;;12.32;100.00;101030.38;5009911;28;20042;-81
2022/06/11 07:53:17;;;;;;;8.00;3.60;;;;;;;11.96;100.00;101046.31;5018829;28;20029;-80
2022/06/11 07:55:45;;;;;;;2.15;1.25;;;;;;;11.61;100.00;101036.88;5055590;28;20025;-80
2022/06/11 07:58:12;;;;;;;2.00;1.00;;;;;;;11.36;100.00;101034.28;4990713;28;20041;-81
2022/06/11 08:00:41;;;;;;;2.35;1.50;;;;;;;11.16;100.00;101015.00;5000829;28;20566;-82
2022/06/11 08:03:07;;;;;;;5.60;1.92;;;;;;;11.11;100.00;100998.53;5011649;28;20029;-83
2022/06/11 08:05:41;;;;;;;0.55;0.45;;;;;;;11.46;100.00;101039.47;5021871;28;20479;-83
2022/06/11 08:08:09;;;;;;;0.50;0.50;;;;;;;11.77;100.00;101049.41;4989182;28;20398;-83
2022/06/11 08:10:38;;;;;;;0.85;0.85;;;;;;;12.77;100.00;101054.78;5003938;28;20029;-83
2022/06/11 08:13:05;;;;;;;0.55;0.55;;;;;;;14.17;100.00;101056.69;4987307;28;20123;-83
2022/06/11 08:15:30;;;;;;;0.50;0.50;;;;;;;15.74;95.81;101048.25;5008322;28;20106;-80
2022/06/11 08:17:56;;;;;;;2.15;1.25;;;;;;;15.09;99.79;101061.25;5027004;28;20478;-83
2022/06/11 08:20:26;;;;;;;0.60;0.60;;;;;;;14.84;100.00;101058.97;5006125;28;20158;-80
2022/06/11 08:22:52;;;;;;;2.38;1.05;;;;;;;14.97;100.00;101058.22;4993771;28;20041;-82
2022/06/11 08:25:19;;;;;;;1.98;1.88;;;;;;;15.24;100.00;101064.69;5008132;28;20036;-79
2022/06/11 08:27:44;;;;;;;0.63;0.57;;;;;;;15.27;100.00;101072.41;5002038;28;20033;-80
2022/06/11 08:30:13;;;;;;;0.77;0.77;;;;;;;15.00;100.00;101054.28;5007992;28;20041;-81
2022/06/11 08:32:39;;;;;;;0.43;0.43;;;;;;;14.68;100.00;101059.25;4994532;28;20072;-79
2022/06/11 08:35:08;;;;;;;1.77;1.35;;;;;;;14.48;100.00;101056.38;5008867;28;20034;-83
2022/06/11 08:37:34;;;;;;;0.30;0.30;;;;;;;14.28;100.00;101061.56;5012005;28;20099;-82
2022/06/11 08:40:00;;;;;;;0.60;0.60;;;;;;;14.12;100.00;101059.13;5023874;28;20037;-79
2022/06/11 08:42:52;;;;;;;0.40;0.40;;;;;;;13.78;100.00;101058.72;4994911;28;20046;-84
2022/06/11 08:45:21;;;;;;;1.67;1.58;;;;;;;13.36;100.00;101075.63;5022824;28;20030;-79
2022/06/11 08:47:52;;;;;;;2.70;1.30;;;;;;;12.99;100.00;101066.53;4988758;28;20038;-79
2022/06/11 08:50:35;;;;;;;3.03;0.55;;;;;;;12.88;100.00;101061.59;5007168;28;20457;-79
2022/06/11 08:53:02;;;;;;;4.80;1.95;;;;;;;13.11;100.00;101053.44;5003173;28;20033;-81
2022/06/11 08:55:37;;;;;;;0.82;0.70;;;;;;;13.39;100.00;101075.28;5006201;28;20044;-80
2022/06/11 08:58:18;;;;;;;4.70;1.27;;;;;;;13.70;100.00;101064.25;5005415;28;20072;-80
2022/06/11 09:01:11;;;;;;;0.40;0.40;;;;;;;13.90;100.00;101072.59;5019492;28;20121;-82
2022/06/11 09:03:49;;;;;;;0.77;0.77;;;;;;;14.06;100.00;101074.25;5010790;28;20418;-80
2022/06/11 09:06:50;;;;;;;0.80;0.70;;;;;;;14.48;100.00;101067.19;4994654;28;20048;-80
2022/06/11 09:09:22;;;;;;;0.52;0.52;;;;;;;15.12;100.00;101079.81;4991700;28;20136;-81
2022/06/11 09:11:51;;;;;;;1.77;1.30;;;;;;;15.43;100.00;101078.53;5009142;28;20069;-80
2022/06/11 09:14:19;;;;;;;0.85;0.75;;;;;;;15.33;100.00;101079.72;5030491;28;20037;-80
2022/06/11 09:16:57;;;;;;;3.03;1.10;;;;;;;15.08;100.00;101076.66;5007841;28;20068;-79
2022/06/11 09:19:32;;;;;;;2.65;1.83;;;;;;;14.72;100.00;101083.03;5030017;28;20479;-79
2022/06/11 09:22:09;;;;;;;0.70;0.63;;;;;;;14.46;100.00;101077.34;5029118;28;20032;-82
2022/06/11 09:24:47;;;;;;;3.53;1.58;;;;;;;14.20;100.00;101064.41;5009232;28;20052;-80
2022/06/11 09:27:28;;;;;;;4.45;1.67;;;;;;;14.38;100.00;101078.31;5023939;28;20108;-80
2022/06/11 09:30:04;;;;;;;0.75;0.75;;;;;;;15.46;100.00;101097.13;5028155;28;20030;-79
2022/06/11 09:32:37;;;;;;;5.90;1.23;;;;;;;16.23;96.60;101085.97;5028394;28;20091;-80
2022/06/11 09:35:36;;;;;;;3.33;1.60;;;;;;;16.49;94.56;101100.66;5027475;28;20053;-80
2022/06/11 09:38:16;;;;;;;1.35;1.13;;;;;;;16.35;94.88;101104.38;4998913;28;20033;-81
2022/06/11 09:40:46;;;;;;;8.35;2.22;;;;;;;16.18;94.33;101099.31;5028108;28;20211;-83
2022/06/11 09:43:56;;;;;;;9.82;2.22;;;;;;;16.24;93.75;101120.19;5009391;28;20045;-82
2022/06/11 09:46:43;;;;;;;10.40;2.50;;;;;;;16.20;94.89;101118.13;5024534;28;20160;-80
2022/06/11 09:49:30;;;;;;;14.80;3.25;;;;;;;16.35;93.92;101098.94;5026815;28;20033;-81
2022/06/11 09:52:20;;;;;;;7.50;2.60;;;;;;;16.40;93.23;101120.88;5012445;28;20116;-79
2022/06/11 09:55:04;;;;;;;11.23;3.95;;;;;;;16.10;93.53;101112.25;4998209;28;20441;-81
2022/06/11 09:57:35;;;;;;;12.25;3.88;;;;;;;15.89;94.98;101118.63;5026190;28;20094;-80
2022/06/11 10:00:08;;;;;;;13.88;4.07;;;;;;;15.64;96.57;101118.25;5027504;28;20036;-81
2022/06/11 10:03:45;;;;;;;7.93;4.13;;;;;;;15.38;96.62;101119.78;4993001;28;20072;-79
2022/06/11 10:05:55;;;;;;;11.40;3.80;;;;;;;14.97;98.09;101133.22;5040824;28;20029;-78
2022/06/11 10:08:42;;;;;;;0.80;0.80;;;;;;;14.27;100.00;101136.47;5027146;28;20034;-77
2022/06/11 10:11:22;;;;;;;3.42;1.88;;;;;;;13.77;100.00;101137.31;4995078;28;20132;-77
2022/06/11 10:14:50;;;;;;;3.58;3.22;;;;;;;13.92;100.00;101138.13;5006970;28;20060;-77
2022/06/11 10:17:01;;;;;;;;;;;;;;;14.65;100.00;101140.84;5001045;28;20050;-77
2022/06/11 10:19:27;;;;;;;0.50;0.50;;;;;;;15.22;99.97;101139.06;5028511;28;19952;-78
2022/06/11 10:22:01;;;;;;;2.78;1.83;;;;;;;15.64;98.18;101138.09;5003674;28;20053;-78
2022/06/11 10:24:28;;;;;;;2.35;1.30;;;;;;;15.78;97.48;101137.13;5025945;28;20542;-78
2022/06/11 10:27:00;;;;;;;4.80;2.10;;;;;;;16.44;94.10;101141.16;5014630;28;20041;-80
2022/06/11 10:29:34;;;;;;;1.83;1.05;;;;;;;17.38;89.29;101147.47;5024758;28;20117;-79
2022/06/11 10:32:26;;;;;;;1.20;1.10;;;;;;;17.92;87.71;101144.47;4992643;28;20048;-78
2022/06/11 10:35:00;;;;;;;1.85;1.10;;;;;;;17.78;87.66;101148.22;5027401;28;20053;-78
2022/06/11 10:37:36;;;;;;;0.65;0.65;;;;;;;17.14;90.04;101156.06;5014479;28;20033;-78
2022/06/11 10:40:06;;;;;;;0.68;0.68;;;;;;;16.65;92.24;101145.56;4995854;28;20037;-78
2022/06/11 10:42:32;;;;;;;2.05;0.80;;;;;;;16.69;92.91;101160.38;4994358;28;20025;-77
2022/06/11 10:44:57;;;;;;;3.92;1.35;;;;;;;16.51;92.89;101162.84;5027337;28;20044;-78
2022/06/11 10:47:35;;;;;;;2.33;1.13;;;;;;;16.05;94.90;101157.06;5005130;28;20079;-79
2022/06/11 10:50:11;;;;;;;4.57;1.75;;;;;;;15.50;95.72;101166.13;5009573;28;20025;-76
2022/06/11 10:53:01;;;;;;;1.75;1.17;;;;;;;14.82;98.90;101182.88;5024033;28;20491;-76
2022/06/11 10:55:44;;;;;;;1.42;0.90;;;;;;;14.22;100.00;101186.75;5029884;28;20041;-78
2022/06/11 10:58:26;;;;;;;4.72;2.53;;;;;;;14.04;100.00;101169.06;5007718;28;20033;-79
2022/06/11 11:01:18;;;;;;;1.33;1.25;;;;;;;14.87;100.00;101175.03;5008149;28;20045;-78
2022/06/11 11:03:50;;;;;;;3.40;0.88;;;;;;;15.61;98.54;101174.56;5017595;28;20171;-80
2022/06/11 11:06:28;;;;;;;1.83;1.38;;;;;;;15.92;97.56;101178.72;4996042;28;20387;-80
2022/06/11 11:08:59;;;;;;;0.70;0.70;;;;;;;16.13;95.69;101156.06;5028020;28;20120;-78
2022/06/11 11:11:26;;;;;;;1.35;1.25;;;;;;;17.66;91.87;101183.41;4999934;28;20033;-80
2022/06/11 11:14:04;;;;;;;1.88;1.10;;;;;;;17.63;90.26;101188.44;4999479;28;20111;-81
2022/06/11 11:16:32;;;;;;;6.22;1.63;;;;;;;16.84;94.31;101185.53;5014163;28;20040;-80
2022/06/11 11:19:05;;;;;;;0.75;0.68;;;;;;;16.66;94.61;101180.66;5021863;28;20119;-81
2022/06/11 11:21:35;;;;;;;1.20;1.10;;;;;;;17.32;92.06;101182.59;5013296;28;20033;-79
2022/06/11 11:24:30;;;;;;;1.42;1.05;;;;;;;17.13;92.09;101192.44;5028508;28;20065;-80
2022/06/11 11:26:59;;;;;;;1.85;0.90;;;;;;;17.10;92.05;101205.63;5023107;28;20049;-82
2022/06/11 11:29:30;;;;;;;0.60;0.60;;;;;;;17.08;91.46;101199.56;5011731;28;20558;-80
2022/06/11 11:32:06;;;;;;;2.00;1.38;;;;;;;16.42;93.47;101213.78;5028902;28;20293;-80
2022/06/11 11:34:48;;;;;;;3.67;1.33;;;;;;;16.29;94.01;101202.88;4997965;28;20119;-80